Mexia, Texas
Current Conditions -  °F | °C
As of 5:15 PM on Wednesday 26 Nov 2014 (Local Time) from KLXY Reporting Station
Clear Clear  
Wind Chill: 61°   Ceiling: Unl
Heat Index: 61°   Visibility: 10mi
Dew Point: 32°   Wind: 7mph
Humidity: 33%   Direction: 350°N
Pressure: 30.2"   Gusts: NA
Location:  31.68°N, 96.48°W
Report Text: KLXY 262315Z AUTO 35006KT 10SM CLR 16/00 A3020 RMK AO2 T01621002
Loading
Personal Weather Stations






























Interactive Weather Map New forecast layout! Learn more

10-Day Weather Forecast

Advertisements
Track Severe Weather on mobile